Search
Race

Overall

Place Bib Name Age Sex City State Run Time
1 20 Andrew Zabel 39 M Sartell MN 58:51 (1) 58:51
2 13 Bill Kelley 47 M Wrenshall MN 1:04:15 (2) 1:04:15
3 10 Ryan Saline 44 M Cloquet MN 1:05:24 (3) 1:05:24
4 31 Colin Stemper 30 M Falcon Heights MN 1:08:11 (4) 1:08:11
5 37 Erik Riker-Coleman 46 M Duluth MN 1:11:38 (5) 1:11:38
6 44 Jim Reed 59 M Duluth MN 1:12:29 (6) 1:12:29
7 59 Nick Wilcox 25 M Jamestown ND 1:12:44 (7) 1:12:44
8 4 Joseph Holz 38 M Saginaw MN 1:12:50 (8) 1:12:50
9 49 Tyler Behrends 40 M Duluth MN 1:13:15 (9) 1:13:15
10 2 Paul Appicelli 56 M Winona MN 1:13:20 (10) 1:13:20
11 18 Jim McDonell 66 M Pine City MN 1:14:02 (11) 1:14:02
12 24 Hannah Pierskalla 28 F Duluth MN 1:14:43 (12) 1:14:43
13 12 Julie Knochenmus 53 F Esko MN 1:15:17 (13) 1:15:17
14 3 Steve Stolz 59 M Forest Lake MN 1:16:05 (14) 1:16:05
15 25 Peter Kroll 34 M Esko MN 1:17:01 (15) 1:17:01
16 8 Walter Knochenmus 58 M Esko MN 1:17:29 (16) 1:17:29
17 26 Maria Hauer 24 F New Hope MN 1:17:36 (17) 1:17:36
18 45 Skeeter Moore 56 M Duluth MN 1:17:43 (18) 1:17:43
19 9 Tyler Anderson 26 M Duluth MN 1:18:17 (19) 1:18:17
20 53 Jeff Johnson 41 M Pine City MN 1:18:31 (20) 1:18:31
21 17 Kate Cunningham 18 F Saint Paul MN 1:20:54 (21) 1:20:54
22 48 Janie Moore 34 F Duluth MN 1:21:17 (22) 1:21:17
23 27 Randy Back 60 M Supeior WI 1:21:49 (23) 1:21:49
24 38 Judd Johnston 67 M Duluth MN 1:22:11 (24) 1:22:11
25 6 Justin Decheine 31 M Coon Rapids MN 1:22:13 (25) 1:22:13
26 35 Kelly Grinsteinner 42 F Hibbing MN 1:23:40 (26) 1:23:40
27 30 Ken Wasche 52 M Oak Grove MN 1:25:03 (27) 1:25:03
28 55 Kyle Landwehr 42 M Barnum MN 1:25:10 (28) 1:25:10
29 5 Nick Wasche 32 M St. Francis MN 1:26:08 (29) 1:26:08
30 21 Jane Hutzol 54 F Arvilla ND 1:27:54 (30) 1:27:54
31 11 David Louzek 49 M Willow River MN 1:27:58 (31) 1:27:58
32 36 Alyson Leno 34 F Cloquet MN 1:28:31 (32) 1:28:31
33 22 Ryan Wakefield 31 M Richfield MN 1:30:40 (33) 1:30:40
34 57 Mike More 46 M Edina MN 1:32:37 (34) 1:32:37
35 54 Robert Kranz 72 M Apple Valley MN 1:34:29 (35) 1:34:29
36 67 Gary Rosenthal 59 M Burnsville MN 1:34:43 (36) 1:34:43
37 65 Mary Carlson 58 F Mooselake MN 1:35:37 (37) 1:35:37
38 60 Nick Olson 19 M Eagan MN 1:38:20 (38) 1:38:20
39 14 Clayton Ohlin 68 M Moose Lake MN 1:38:54 (39) 1:38:54
40 29 Koren Wasche 51 F Oak Grove MN 1:38:57 (40) 1:38:57
41 42 Connie Meek 72 F Hayward WI 1:40:32 (41) 1:40:32
42 47 Sarah Kroschel 36 F Bruno MN 1:40:33 (42) 1:40:33
43 34 Jacob Easty 18 M Duluth MN 1:40:43 (43) 1:40:43
44 15 Gwen Peterson 39 F Barnum MN 1:42:01 (44) 1:42:01
45 61 Eric Olson 50 M Eagan MN 1:44:40 (45) 1:44:40
46 52 Brittany Dressler 32 F Eagan MN 1:44:41 (46) 1:44:41
47 28 Angela Fisher 43 F Hibbing MN 1:45:53 (47) 1:45:53
48 66 Andrew Hansen 15 M Cloquet MN 1:46:03 (48) 1:46:03
49 39 Joseph Schingen 42 M Duluth MN 1:47:09 (49) 1:47:09
50 41 David Hoyt 49 M Rockville MN 1:47:09 (50) 1:47:09
Next
Race Summary

Date

7/20/2019

Distance

Sprint

Average Time

1:28:13

Total

55 finishers

Men

36 finishers

Women

19 finishers
Results Question?